createdAt,value
2019-02-16T00:02:15.555Z,4.93
2019-02-16T00:04:43.951Z,4.33
2019-02-16T00:07:12.348Z,3.43
2019-02-16T00:09:40.747Z,5.27
2019-02-16T00:12:09.131Z,3.40
2019-02-16T00:14:37.544Z,4.20
2019-02-16T00:17:05.943Z,6.80
2019-02-16T00:19:34.335Z,4.47
2019-02-16T00:22:02.721Z,5.67
2019-02-16T00:24:31.120Z,3.53
2019-02-16T00:26:59.505Z,6.17
2019-02-16T00:29:27.881Z,4.83
2019-02-16T00:31:56.286Z,6.00
2019-02-16T00:34:24.663Z,4.17
2019-02-16T00:36:53.063Z,3.97
2019-02-16T00:39:21.460Z,4.47
2019-02-16T00:41:49.847Z,4.57
2019-02-16T00:44:18.231Z,3.30
2019-02-16T00:46:46.621Z,5.13
2019-02-16T00:49:15.018Z,3.40
2019-02-16T00:51:43.423Z,5.93
2019-02-16T00:54:11.813Z,3.90
2019-02-16T00:56:40.195Z,4.10
2019-02-16T00:59:08.585Z,6.37
2019-02-16T01:01:36.987Z,4.30
2019-02-16T01:04:05.371Z,4.33
2019-02-16T01:06:33.762Z,3.80
2019-02-16T01:09:02.229Z,5.90
2019-02-16T01:11:30.615Z,3.87
2019-02-16T01:13:59.000Z,4.77
2019-02-16T01:16:27.407Z,7.27
2019-02-16T01:18:55.881Z,5.20
2019-02-16T01:21:24.275Z,4.53
2019-02-16T01:23:52.693Z,5.20
2019-02-16T01:26:21.075Z,4.90
2019-02-16T01:28:49.461Z,4.90
2019-02-16T01:31:17.873Z,6.53
2019-02-16T01:33:46.287Z,3.87
2019-02-16T01:36:14.659Z,4.70
2019-02-16T01:38:43.057Z,4.93
2019-02-16T01:41:11.451Z,6.00
2019-02-16T01:43:39.927Z,4.60
2019-02-16T01:46:08.327Z,4.93
2019-02-16T01:48:36.787Z,5.17
2019-02-16T01:51:05.180Z,3.73
2019-02-16T01:53:33.584Z,3.70
2019-02-16T01:56:01.955Z,3.33
2019-02-16T01:58:30.346Z,5.83
2019-02-16T02:00:58.799Z,5.17
2019-02-16T02:03:27.191Z,4.47
2019-02-16T02:05:55.578Z,3.30
2019-02-16T02:08:23.974Z,4.17
2019-02-16T02:10:52.360Z,6.23
2019-02-16T02:13:20.744Z,4.13
2019-02-16T02:15:49.132Z,4.50
2019-02-16T02:18:17.520Z,3.70
2019-02-16T02:20:45.905Z,4.77
2019-02-16T02:23:14.293Z,4.87
2019-02-16T02:25:42.672Z,4.13
2019-02-16T02:28:11.055Z,3.90
2019-02-16T02:30:39.459Z,5.47
2019-02-16T02:33:07.849Z,4.10
2019-02-16T02:35:36.219Z,3.93
2019-02-16T02:38:04.619Z,5.70
2019-02-16T02:40:33.007Z,5.17
2019-02-16T02:43:01.395Z,6.30
2019-02-16T02:45:29.791Z,5.60
2019-02-16T02:47:58.176Z,3.97
2019-02-16T02:50:26.561Z,4.73
2019-02-16T02:52:56.571Z,4.67
2019-02-16T02:55:25.222Z,3.80
2019-02-16T02:57:53.600Z,3.67
2019-02-16T03:00:21.988Z,5.03
2019-02-16T03:02:50.416Z,4.40
2019-02-16T03:05:18.810Z,5.83
2019-02-16T03:07:47.193Z,4.67
2019-02-16T03:10:15.965Z,5.87
2019-02-16T03:12:44.374Z,5.27
2019-02-16T03:15:12.778Z,5.43
2019-02-16T03:17:41.208Z,5.83
2019-02-16T03:20:09.592Z,6.00
2019-02-16T03:23:12.545Z,4.47
2019-02-16T03:25:43.144Z,4.70
2019-02-16T03:28:32.452Z,4.90
2019-02-16T03:31:37.595Z,5.17
2019-02-16T03:34:15.260Z,5.27
2019-02-16T03:37:03.704Z,6.27
2019-02-16T03:39:32.169Z,4.90
2019-02-16T03:42:00.545Z,6.13
2019-02-16T03:44:28.933Z,5.57
2019-02-16T03:46:57.321Z,6.47
2019-02-16T03:49:25.703Z,5.00
2019-02-16T03:51:54.079Z,5.80
2019-02-16T03:54:22.459Z,5.70
2019-02-16T03:56:50.842Z,5.63
2019-02-16T03:59:19.224Z,6.57
2019-02-16T04:01:47.684Z,6.00
2019-02-16T04:04:16.096Z,4.53
2019-02-16T04:06:44.483Z,4.90
2019-02-16T04:09:12.911Z,4.87
2019-02-16T04:11:41.297Z,5.43
2019-02-16T04:14:09.693Z,7.40
2019-02-16T04:16:38.077Z,4.83
2019-02-16T04:19:06.485Z,5.40
2019-02-16T04:21:34.863Z,6.10
2019-02-16T04:24:03.262Z,5.50
2019-02-16T04:26:31.664Z,6.07
2019-02-16T04:29:00.054Z,7.50
2019-02-16T04:31:28.429Z,6.50
2019-02-16T04:33:56.807Z,5.87
2019-02-16T04:36:25.213Z,7.50
2019-02-16T04:38:53.592Z,5.67
2019-02-16T04:41:21.970Z,7.40
2019-02-16T04:43:50.364Z,4.27
2019-02-16T04:46:18.755Z,5.80
2019-02-16T04:48:47.131Z,7.03
2019-02-16T04:51:15.536Z,5.35
2019-02-16T04:53:43.941Z,4.90
2019-02-16T04:56:12.471Z,5.10
2019-02-16T04:58:40.945Z,5.30
2019-02-16T05:01:09.335Z,4.73
2019-02-16T05:03:37.721Z,6.20
2019-02-16T05:06:06.109Z,6.83
2019-02-16T05:08:34.495Z,6.17
2019-02-16T05:11:02.888Z,4.87
2019-02-16T05:13:31.467Z,6.67
2019-02-16T05:15:59.854Z,4.30
2019-02-16T05:18:28.231Z,5.70
2019-02-16T05:20:56.623Z,5.10
2019-02-16T05:23:25.011Z,4.87
2019-02-16T05:25:53.403Z,5.47
2019-02-16T05:28:21.813Z,4.27
2019-02-16T05:30:50.215Z,6.40
2019-02-16T05:33:18.660Z,4.60
2019-02-16T05:35:47.048Z,6.23
2019-02-16T05:38:15.441Z,6.77
2019-02-16T05:40:43.828Z,6.27
2019-02-16T05:43:12.223Z,4.93
2019-02-16T05:45:40.617Z,6.20
2019-02-16T05:48:09.004Z,5.07
2019-02-16T05:50:37.397Z,7.23
2019-02-16T05:53:05.775Z,5.67
2019-02-16T05:55:34.159Z,6.17
2019-02-16T05:58:02.639Z,6.20
2019-02-16T06:00:31.811Z,4.77
2019-02-16T06:03:00.188Z,5.57
2019-02-16T06:05:28.644Z,4.90
2019-02-16T06:07:57.039Z,6.87
2019-02-16T06:10:25.419Z,5.40
2019-02-16T06:12:53.807Z,5.43
2019-02-16T06:15:22.205Z,4.97
2019-02-16T06:17:50.592Z,5.50
2019-02-16T06:20:18.974Z,6.47
2019-02-16T06:22:47.355Z,5.13
2019-02-16T06:25:15.751Z,5.73
2019-02-16T06:27:49.644Z,6.23
2019-02-16T06:30:18.044Z,8.40
2019-02-16T06:32:46.471Z,7.00
2019-02-16T06:35:19.293Z,4.17
2019-02-16T06:37:47.712Z,5.23
2019-02-16T06:40:16.108Z,4.60
2019-02-16T06:42:44.575Z,5.63
2019-02-16T06:45:13.702Z,8.77
2019-02-16T06:47:42.108Z,4.83
2019-02-16T06:50:10.962Z,5.00
2019-02-16T06:52:39.387Z,6.33
2019-02-16T06:55:07.824Z,4.27
2019-02-16T06:57:36.436Z,5.83
2019-02-16T07:00:08.212Z,5.40
2019-02-16T07:02:37.112Z,4.40
2019-02-16T07:05:06.802Z,7.50
2019-02-16T07:07:35.362Z,4.57
2019-02-16T07:10:06.431Z,6.00
2019-02-16T07:12:34.930Z,5.13
2019-02-16T07:15:03.796Z,5.23
2019-02-16T07:17:34.149Z,5.93
2019-02-16T07:20:02.786Z,7.60
2019-02-16T07:22:31.347Z,6.77
2019-02-16T07:24:59.834Z,5.77
2019-02-16T07:27:28.872Z,4.67
2019-02-16T07:29:57.435Z,7.27
2019-02-16T07:32:26.129Z,6.57
2019-02-16T07:35:00.682Z,6.10
2019-02-16T07:37:32.378Z,4.87
2019-02-16T07:40:00.820Z,6.07
2019-02-16T07:42:30.861Z,7.77
2019-02-16T07:45:00.912Z,6.90
2019-02-16T07:47:35.161Z,5.80
2019-02-16T07:50:20.565Z,7.73
2019-02-16T07:52:53.412Z,4.57
2019-02-16T07:55:25.955Z,6.30
2019-02-16T07:57:58.833Z,6.30
2019-02-16T08:00:34.660Z,7.07
2019-02-16T08:03:04.762Z,6.03
2019-02-16T08:05:49.764Z,5.03
2019-02-16T08:08:22.932Z,5.07
2019-02-16T08:11:04.661Z,5.93
2019-02-16T08:13:34.711Z,6.03
2019-02-16T08:16:20.905Z,5.47
2019-02-16T08:18:53.908Z,6.13
2019-02-16T08:21:36.001Z,6.97
2019-02-16T08:24:20.850Z,7.67
2019-02-16T08:26:51.265Z,5.17
2019-02-16T08:29:37.464Z,7.63
2019-02-16T08:32:24.000Z,7.67
2019-02-16T08:34:54.052Z,5.53
2019-02-16T08:37:33.180Z,6.63
2019-02-16T08:40:22.142Z,5.23
2019-02-16T08:42:58.037Z,4.83
2019-02-16T08:45:30.776Z,6.17
2019-02-16T08:48:00.825Z,4.00
2019-02-16T08:50:36.985Z,5.87
2019-02-16T08:53:07.052Z,7.23
2019-02-16T08:55:40.099Z,6.30
2019-02-16T08:58:29.443Z,5.47
2019-02-16T09:01:14.361Z,6.63
2019-02-16T09:03:44.504Z,5.63
2019-02-16T09:06:26.563Z,5.77
2019-02-16T09:09:02.757Z,5.70
2019-02-16T09:11:35.761Z,5.57
2019-02-16T09:14:14.888Z,5.23
2019-02-16T09:16:47.667Z,4.97
2019-02-16T09:19:17.711Z,5.73
2019-02-16T09:21:53.308Z,4.80
2019-02-16T09:24:30.815Z,4.73
2019-02-16T09:27:10.699Z,4.33
2019-02-16T09:29:55.804Z,5.10
2019-02-16T09:32:25.938Z,7.17
2019-02-16T09:34:55.996Z,4.97
2019-02-16T09:37:26.033Z,8.57
2019-02-16T09:40:05.245Z,4.27
2019-02-16T09:42:35.297Z,4.80
2019-02-16T09:45:06.153Z,5.20
2019-02-16T09:47:48.143Z,8.63
2019-02-16T09:50:23.981Z,8.40
2019-02-16T09:52:56.473Z,4.43
2019-02-16T09:55:29.688Z,7.40
2019-02-16T09:58:16.195Z,6.57
2019-02-16T10:00:48.957Z,6.07
2019-02-16T10:03:34.016Z,6.23
2019-02-16T10:06:19.258Z,6.40
2019-02-16T10:08:58.276Z,4.50
2019-02-16T10:11:37.351Z,6.83
2019-02-16T10:14:10.627Z,4.90
2019-02-16T10:16:43.670Z,5.78
2019-02-16T10:19:16.171Z,5.72
2019-02-16T10:21:54.960Z,6.42
2019-02-16T10:24:27.798Z,5.60
2019-02-16T10:26:57.844Z,8.07
2019-02-16T10:29:30.797Z,6.87
2019-02-16T10:32:01.544Z,4.97
2019-02-16T10:34:34.552Z,7.87
2019-02-16T10:37:11.031Z,4.87
2019-02-16T10:39:41.071Z,6.58
2019-02-16T10:42:20.204Z,7.00
2019-02-16T10:44:50.247Z,6.40
2019-02-16T10:47:23.290Z,7.78
2019-02-16T10:49:53.346Z,5.42
2019-02-16T10:52:26.222Z,6.40
2019-02-16T10:55:05.057Z,6.85
2019-02-16T10:57:37.133Z,7.30
2019-02-16T11:00:26.279Z,7.62
2019-02-16T11:02:59.021Z,7.97
2019-02-16T11:05:40.875Z,6.47
2019-02-16T11:08:10.937Z,7.53
2019-02-16T11:10:45.448Z,6.85
2019-02-16T11:13:15.488Z,8.30
2019-02-16T11:16:00.685Z,8.63
2019-02-16T11:18:42.529Z,9.20
2019-02-16T11:21:30.409Z,9.00
2019-02-16T11:24:00.130Z,8.23
2019-02-16T11:26:30.439Z,9.10
2019-02-16T11:29:00.527Z,10.17
2019-02-16T11:31:42.216Z,8.67
2019-02-16T11:34:28.699Z,10.53
2019-02-16T11:36:58.741Z,9.13
2019-02-16T11:39:37.617Z,8.97
2019-02-16T11:42:13.727Z,7.90
2019-02-16T11:44:46.884Z,7.90
2019-02-16T11:47:28.127Z,10.10
2019-02-16T11:50:13.168Z,8.73
2019-02-16T11:52:59.505Z,7.90
2019-02-16T11:55:32.199Z,9.00
2019-02-16T11:58:04.975Z,11.43
2019-02-16T12:00:35.098Z,9.13
2019-02-16T12:03:06.238Z,10.90
2019-02-16T12:05:38.839Z,10.97
2019-02-16T12:08:11.760Z,10.97
2019-02-16T12:10:47.812Z,11.40
2019-02-16T12:13:35.923Z,14.53
2019-02-16T12:16:08.922Z,11.67
2019-02-16T12:18:38.955Z,11.57
2019-02-16T12:21:14.833Z,12.53
2019-02-16T12:23:56.779Z,10.13
2019-02-16T12:26:29.575Z,11.27
2019-02-16T12:28:59.629Z,10.37
2019-02-16T12:31:35.420Z,10.27
2019-02-16T12:34:22.022Z,10.90
2019-02-16T12:36:52.059Z,8.93
2019-02-16T12:39:25.032Z,12.20
2019-02-16T12:42:04.044Z,11.70
2019-02-16T12:44:52.433Z,11.13
2019-02-16T12:47:31.500Z,10.87
2019-02-16T12:50:07.555Z,9.13
2019-02-16T12:52:46.428Z,11.23
2019-02-16T12:55:33.012Z,10.27
2019-02-16T12:58:05.785Z,10.50
2019-02-16T13:00:35.844Z,12.23
2019-02-16T13:03:08.532Z,11.50
2019-02-16T13:05:50.776Z,11.47
2019-02-16T13:08:20.841Z,11.53
2019-02-16T13:10:56.969Z,12.60
2019-02-16T13:13:44.798Z,13.10
2019-02-16T13:16:23.860Z,10.43
2019-02-16T13:18:59.561Z,10.23
2019-02-16T13:21:38.553Z,9.60
2019-02-16T13:24:08.667Z,12.23
2019-02-16T13:26:38.773Z,10.93
2019-02-16T13:29:25.392Z,12.53
2019-02-16T13:31:58.443Z,11.73
2019-02-16T13:34:34.384Z,10.20
2019-02-16T13:37:07.300Z,11.17
2019-02-16T13:39:46.355Z,12.17
2019-02-16T13:42:18.896Z,10.50
2019-02-16T13:44:51.666Z,11.87
2019-02-16T13:47:30.860Z,9.57
2019-02-16T13:50:00.970Z,11.43
2019-02-16T13:52:47.428Z,11.87
2019-02-16T13:55:36.282Z,10.13
2019-02-16T13:58:15.212Z,11.20
2019-02-16T14:00:48.027Z,9.47
2019-02-16T14:03:26.635Z,10.07
2019-02-16T14:06:05.815Z,12.90
2019-02-16T14:08:52.342Z,12.77
2019-02-16T14:11:38.859Z,11.23
2019-02-16T14:14:11.425Z,9.13
2019-02-16T14:16:44.184Z,10.60
2019-02-16T14:19:12.670Z,10.37
2019-02-16T14:21:41.080Z,13.27
2019-02-16T14:24:09.575Z,8.93
2019-02-16T14:26:37.996Z,12.80
2019-02-16T14:29:06.476Z,9.60
2019-02-16T14:31:34.895Z,11.90
2019-02-16T14:34:03.322Z,11.87
2019-02-16T14:36:31.736Z,10.30
2019-02-16T14:39:04.396Z,10.27
2019-02-16T14:41:32.836Z,12.40
2019-02-16T14:44:01.343Z,16.30
2019-02-16T14:46:29.740Z,12.13
2019-02-16T14:48:58.147Z,9.77
2019-02-16T14:51:26.565Z,11.37
2019-02-16T14:53:54.986Z,11.20
2019-02-16T14:56:23.396Z,11.50
2019-02-16T14:58:51.828Z,12.70
2019-02-16T15:01:20.251Z,10.73
2019-02-16T15:03:48.628Z,12.93
2019-02-16T15:06:17.040Z,11.07
2019-02-16T15:08:45.521Z,11.67
2019-02-16T15:11:13.932Z,13.50
2019-02-16T15:13:42.360Z,11.37
2019-02-16T15:16:10.757Z,11.23
2019-02-16T15:18:39.158Z,9.87
2019-02-16T15:21:07.582Z,11.37
2019-02-16T15:23:35.984Z,10.77
2019-02-16T15:26:04.380Z,9.93
2019-02-16T15:28:32.819Z,12.53
2019-02-16T15:31:01.228Z,11.83
2019-02-16T15:33:29.631Z,14.10
2019-02-16T15:35:58.029Z,16.20
2019-02-16T15:38:26.445Z,12.03
2019-02-16T15:40:54.844Z,15.40
2019-02-16T15:43:23.261Z,11.07
2019-02-16T15:45:51.656Z,22.33
2019-02-16T15:48:20.145Z,15.53
2019-02-16T15:50:48.566Z,10.43
2019-02-16T15:53:16.987Z,10.43
2019-02-16T15:55:45.395Z,11.23
2019-02-16T15:58:13.893Z,12.23
2019-02-16T16:00:42.468Z,11.27
2019-02-16T16:03:10.916Z,14.67
2019-02-16T16:05:39.322Z,14.10
2019-02-16T16:08:12.310Z,11.73
2019-02-16T16:10:42.346Z,10.90
2019-02-16T16:13:15.072Z,16.90
2019-02-16T16:15:51.287Z,12.70
2019-02-16T16:18:33.174Z,14.43
2019-02-16T16:21:05.871Z,12.87
2019-02-16T16:23:50.660Z,16.67
2019-02-16T16:26:33.054Z,14.47
2019-02-16T16:29:19.737Z,14.77
2019-02-16T16:31:49.882Z,17.53
2019-02-16T16:34:25.558Z,12.87
2019-02-16T16:36:58.320Z,12.73
2019-02-16T16:39:37.348Z,17.27
2019-02-16T16:42:07.580Z,14.97
2019-02-16T16:44:40.373Z,17.40
2019-02-16T16:47:26.590Z,15.10
2019-02-16T16:50:18.676Z,19.97
2019-02-16T16:53:00.930Z,19.80
2019-02-16T16:55:30.992Z,17.20
2019-02-16T16:58:03.849Z,23.53
2019-02-16T17:00:42.777Z,16.63
2019-02-16T17:03:12.844Z,19.03
2019-02-16T17:05:48.876Z,17.00
2019-02-16T17:08:24.532Z,16.93
2019-02-16T17:10:54.671Z,17.80
2019-02-16T17:13:33.315Z,25.93
2019-02-16T17:16:15.378Z,17.13
2019-02-16T17:18:54.471Z,20.73
2019-02-16T17:21:24.606Z,21.83
2019-02-16T17:24:00.319Z,19.57
2019-02-16T17:26:37.874Z,16.47
2019-02-16T17:29:21.191Z,18.93
2019-02-16T17:31:54.204Z,23.47
2019-02-16T17:34:24.251Z,23.00
2019-02-16T17:36:57.003Z,18.63
2019-02-16T17:39:29.559Z,21.17
2019-02-16T17:42:17.796Z,24.13
2019-02-16T17:44:47.846Z,25.97
2019-02-16T17:47:33.856Z,33.63
2019-02-16T17:50:03.983Z,27.93
2019-02-16T17:52:46.096Z,34.93
2019-02-16T17:55:34.804Z,24.27
2019-02-16T17:58:04.826Z,26.90
2019-02-16T18:00:37.576Z,29.37
2019-02-16T18:03:10.079Z,29.43
2019-02-16T18:05:43.106Z,27.07
2019-02-16T18:08:16.100Z,23.00
2019-02-16T18:10:48.816Z,24.53
2019-02-16T18:13:18.868Z,27.77
2019-02-16T18:15:58.087Z,27.87
2019-02-16T18:18:46.393Z,29.90
2019-02-16T18:21:19.570Z,28.57
2019-02-16T18:23:49.613Z,24.83
2019-02-16T18:26:22.470Z,29.27
2019-02-16T18:28:57.600Z,27.57
2019-02-16T18:31:33.401Z,29.17
2019-02-16T18:34:18.455Z,34.03
2019-02-16T18:36:51.060Z,28.60
2019-02-16T18:39:21.074Z,27.43
2019-02-16T18:41:57.177Z,25.67
2019-02-16T18:44:33.486Z,23.63
2019-02-16T18:47:06.632Z,26.40
2019-02-16T18:49:39.620Z,22.50
2019-02-16T18:52:12.360Z,22.93
2019-02-16T18:54:58.647Z,23.40
2019-02-16T18:57:34.758Z,26.27
2019-02-16T19:00:08.486Z,22.73
2019-02-16T19:02:44.379Z,21.03
2019-02-16T19:05:15.009Z,26.20
2019-02-16T19:08:00.007Z,24.57
2019-02-16T19:10:33.130Z,27.10
2019-02-16T19:13:05.863Z,28.57
2019-02-16T19:15:41.915Z,26.73
2019-02-16T19:18:14.639Z,27.10
2019-02-16T19:21:00.040Z,30.00
2019-02-16T19:23:45.052Z,24.27
2019-02-16T19:26:29.872Z,30.23
2019-02-16T19:28:59.920Z,37.47
2019-02-16T19:31:32.623Z,36.17
2019-02-16T19:34:03.123Z,41.90
2019-02-16T19:36:39.395Z,39.37
2019-02-16T19:39:21.880Z,37.40
2019-02-16T19:41:51.903Z,37.73
2019-02-16T19:44:21.948Z,36.80
2019-02-16T19:46:54.624Z,38.97
2019-02-16T19:49:41.188Z,32.00
2019-02-16T19:52:14.072Z,37.43
2019-02-16T19:54:55.951Z,32.73
2019-02-16T19:57:28.748Z,33.47
2019-02-16T20:00:13.999Z,31.97
2019-02-16T20:02:49.901Z,31.10
2019-02-16T20:05:22.646Z,30.93
2019-02-16T20:07:55.416Z,33.40
2019-02-16T20:10:31.403Z,30.93
2019-02-16T20:13:07.283Z,31.33
2019-02-16T20:15:55.309Z,29.77
2019-02-16T20:18:34.463Z,31.60
2019-02-16T20:21:20.996Z,32.43
2019-02-16T20:23:51.057Z,32.23
2019-02-16T20:26:36.074Z,28.70
2019-02-16T20:29:08.643Z,33.03
2019-02-16T20:31:41.380Z,29.50
2019-02-16T20:34:11.415Z,37.30
2019-02-16T20:36:50.399Z,31.93
2019-02-16T20:39:20.433Z,31.90
2019-02-16T20:41:56.241Z,34.43
2019-02-16T20:44:28.975Z,33.37
2019-02-16T20:47:02.464Z,24.80
2019-02-16T20:49:32.431Z,29.93
2019-02-16T20:52:05.509Z,26.70
2019-02-16T20:54:44.175Z,28.50
2019-02-16T20:57:14.301Z,26.67
2019-02-16T20:59:46.812Z,25.20
2019-02-16T21:02:22.855Z,30.03
2019-02-16T21:04:52.876Z,27.73
2019-02-16T21:07:29.055Z,24.47
2019-02-16T21:09:59.092Z,21.60
2019-02-16T21:12:45.517Z,25.13
2019-02-16T21:15:27.575Z,23.50
2019-02-16T21:18:00.164Z,25.83
2019-02-16T21:20:30.195Z,23.33
2019-02-16T21:23:00.229Z,23.47
2019-02-16T21:25:39.210Z,21.93
2019-02-16T21:28:11.972Z,22.03
2019-02-16T21:30:47.492Z,24.20
2019-02-16T21:33:26.071Z,23.30
2019-02-16T21:35:56.112Z,22.83
2019-02-16T21:38:28.904Z,19.77
2019-02-16T21:41:15.055Z,21.87
2019-02-16T21:43:45.083Z,19.63
2019-02-16T21:46:15.154Z,21.83
2019-02-16T21:48:48.496Z,20.13
2019-02-16T21:51:36.614Z,18.77
2019-02-16T21:54:23.173Z,18.53
2019-02-16T21:57:09.712Z,20.53
2019-02-16T21:59:39.755Z,23.17
2019-02-16T22:02:26.127Z,20.80
2019-02-16T22:05:05.327Z,18.60
2019-02-16T22:07:35.363Z,24.50
2019-02-16T22:10:11.676Z,19.10
2019-02-16T22:12:41.723Z,20.43
2019-02-16T22:15:10.187Z,19.50
2019-02-16T22:17:38.587Z,18.37
2019-02-16T22:20:10.328Z,19.27
2019-02-16T22:22:38.885Z,21.27
2019-02-16T22:25:07.425Z,21.40
2019-02-16T22:27:35.819Z,20.93
2019-02-16T22:30:05.847Z,22.13
2019-02-16T22:32:34.387Z,25.33
2019-02-16T22:35:02.780Z,23.13
2019-02-16T22:37:31.191Z,18.67
2019-02-16T22:39:59.591Z,22.80
2019-02-16T22:42:28.171Z,20.77
2019-02-16T22:44:56.543Z,21.03
2019-02-16T22:47:24.943Z,18.53
2019-02-16T22:49:53.358Z,20.60
2019-02-16T22:52:21.757Z,19.73
2019-02-16T22:54:50.149Z,19.73
2019-02-16T22:57:18.544Z,20.70
2019-02-16T22:59:48.756Z,20.20
2019-02-16T23:02:17.587Z,20.83
2019-02-16T23:04:46.002Z,22.33
2019-02-16T23:07:14.459Z,20.53
2019-02-16T23:09:42.864Z,21.93
2019-02-16T23:12:11.411Z,21.60
2019-02-16T23:14:39.822Z,19.00
2019-02-16T23:17:08.291Z,23.17
2019-02-16T23:19:36.722Z,23.47
2019-02-16T23:22:05.079Z,23.07
2019-02-16T23:24:33.467Z,20.97
2019-02-16T23:27:01.859Z,23.60
2019-02-16T23:29:30.252Z,19.33
2019-02-16T23:31:58.659Z,22.13
2019-02-16T23:34:27.136Z,20.40
2019-02-16T23:36:55.528Z,22.37
2019-02-16T23:39:23.919Z,20.70
2019-02-16T23:41:52.313Z,19.57
2019-02-16T23:44:20.791Z,17.47
2019-02-16T23:46:51.430Z,21.17
2019-02-16T23:49:19.291Z,20.47
2019-02-16T23:51:47.691Z,22.30
2019-02-16T23:54:16.957Z,19.70
2019-02-16T23:56:45.399Z,21.40
2019-02-16T23:59:13.809Z,24.10
